Warrington, Indiana
Current Conditions -  °F | °C
As of 5:55 PM on Monday 24 Nov 2014 (Local Time) from KMQJ Reporting Station
Overcast Overcast  
Wind Chill: 27°   Ceiling: 3100
Heat Index: 37°   Visibility: 10mi
Dew Point: 25°   Wind: 20mph
Humidity: 60%   Direction: 240°WSW
Pressure: 29.76"   Gusts: 23mph
Location:  39.9098°N, 85.6325°W
Report Text: KMQJ 242255Z AUTO 24017G20KT 10SM OVC031 03/M04 A2976 RMK AO1
Loading
Personal Weather Stations






























Interactive Weather Map New forecast layout! Learn more

10-Day Weather Forecast

Advertisements
Track Severe Weather on mobile